1K1

Lloyd Stearman Field Airport

Benton, Kansas, USA
METAR K1K1 150815Z AUTO 17004KT 10SM CLR M04/M08 A3020 RMK AO2 T10381080
Observed Flight Rules
Nov-15 @ 08:15 UTC (12 minutes ago) Visual Flight Rules
Wind Visibility Clouds
170° at 4 knots 10 miles
  • Clear skies
Temperatures Readings
Current -4°C / 25°F
Dewpoint -8°C / 18°F
Humidity 74%
Altimeter 30.2" Hg
Pressure 1023 hPa
Elevation 416
METAR K1K1 150815Z AUTO 17004KT 10SM CLR M04/M08 A3020 RMK AO2 T10381080
Observed Flight Rules
Nov-15 @ 08:15 UTC
(12 minutes ago)
VFR
Wind Visibility
170° at 4 knots 10 miles
Clouds
  • Clear skies
Temperature Dewpoint
-4°C / 25°F -8°C / 18°F
Humidity Altimeter Pressure
74% 30.2" Hg 1023 hPa